sensor_id;sensor_type;location;lat;lon;timestamp;P1;durP1;ratioP1;P2;durP2;ratioP2
1957;SDS011;979;51.076;13.748;2023-04-06T00:01:41;18.43;;;17.73;;
1957;SDS011;979;51.076;13.748;2023-04-06T00:04:10;17.70;;;16.93;;
1957;SDS011;979;51.076;13.748;2023-04-06T00:06:44;20.00;;;18.80;;
1957;SDS011;979;51.076;13.748;2023-04-06T00:09:13;19.20;;;18.10;;
1957;SDS011;979;51.076;13.748;2023-04-06T00:11:44;18.03;;;17.30;;
1957;SDS011;979;51.076;13.748;2023-04-06T00:14:13;16.83;;;16.20;;
1957;SDS011;979;51.076;13.748;2023-04-06T00:16:51;17.20;;;16.50;;
1957;SDS011;979;51.076;13.748;2023-04-06T00:19:19;18.63;;;17.20;;
1957;SDS011;979;51.076;13.748;2023-04-06T00:22:03;19.13;;;18.13;;
1957;SDS011;979;51.076;13.748;2023-04-06T00:24:32;18.30;;;17.70;;
1957;SDS011;979;51.076;13.748;2023-04-06T00:27:01;18.10;;;17.40;;
1957;SDS011;979;51.076;13.748;2023-04-06T00:29:32;20.90;;;19.70;;
1957;SDS011;979;51.076;13.748;2023-04-06T00:32:02;18.57;;;17.60;;
1957;SDS011;979;51.076;13.748;2023-04-06T00:34:30;18.70;;;18.00;;
1957;SDS011;979;51.076;13.748;2023-04-06T00:36:59;15.10;;;14.80;;
1957;SDS011;979;51.076;13.748;2023-04-06T00:39:29;15.20;;;14.90;;
1957;SDS011;979;51.076;13.748;2023-04-06T00:41:58;15.60;;;15.20;;
1957;SDS011;979;51.076;13.748;2023-04-06T00:44:26;15.70;;;15.30;;
1957;SDS011;979;51.076;13.748;2023-04-06T00:46:57;15.70;;;15.30;;
1957;SDS011;979;51.076;13.748;2023-04-06T00:49:27;15.50;;;15.13;;
1957;SDS011;979;51.076;13.748;2023-04-06T00:51:57;15.30;;;15.00;;
1957;SDS011;979;51.076;13.748;2023-04-06T00:54:26;16.00;;;15.60;;
1957;SDS011;979;51.076;13.748;2023-04-06T00:56:54;15.70;;;15.30;;
1957;SDS011;979;51.076;13.748;2023-04-06T00:59:26;15.50;;;15.10;;
1957;SDS011;979;51.076;13.748;2023-04-06T01:01:58;14.87;;;14.57;;
1957;SDS011;979;51.076;13.748;2023-04-06T01:04:37;15.43;;;15.10;;
1957;SDS011;979;51.076;13.748;2023-04-06T01:07:11;15.50;;;15.10;;
1957;SDS011;979;51.076;13.748;2023-04-06T01:09:47;15.33;;;15.03;;
1957;SDS011;979;51.076;13.748;2023-04-06T01:12:21;15.80;;;15.40;;
1957;SDS011;979;51.076;13.748;2023-04-06T01:14:50;15.60;;;15.30;;
1957;SDS011;979;51.076;13.748;2023-04-06T01:17:18;15.97;;;15.57;;
1957;SDS011;979;51.076;13.748;2023-04-06T01:19:49;15.20;;;14.80;;
1957;SDS011;979;51.076;13.748;2023-04-06T01:22:27;15.80;;;15.40;;
1957;SDS011;979;51.076;13.748;2023-04-06T01:24:59;15.50;;;15.10;;
1957;SDS011;979;51.076;13.748;2023-04-06T01:27:37;14.33;;;14.03;;
1957;SDS011;979;51.076;13.748;2023-04-06T01:30:20;15.80;;;15.40;;
1957;SDS011;979;51.076;13.748;2023-04-06T01:32:52;15.10;;;14.80;;
1957;SDS011;979;51.076;13.748;2023-04-06T01:35:35;15.50;;;15.10;;
1957;SDS011;979;51.076;13.748;2023-04-06T01:38:20;15.60;;;15.20;;
1957;SDS011;979;51.076;13.748;2023-04-06T01:40:48;15.70;;;15.30;;
1957;SDS011;979;51.076;13.748;2023-04-06T01:43:19;15.43;;;15.07;;
1957;SDS011;979;51.076;13.748;2023-04-06T01:46:04;15.30;;;14.90;;
1957;SDS011;979;51.076;13.748;2023-04-06T01:48:35;14.90;;;14.60;;
1957;SDS011;979;51.076;13.748;2023-04-06T01:51:18;14.27;;;13.97;;
1957;SDS011;979;51.076;13.748;2023-04-06T01:53:53;15.87;;;15.47;;
1957;SDS011;979;51.076;13.748;2023-04-06T01:56:28;15.20;;;14.80;;
1957;SDS011;979;51.076;13.748;2023-04-06T01:59:20;14.80;;;14.50;;
1957;SDS011;979;51.076;13.748;2023-04-06T02:01:49;15.00;;;14.70;;
1957;SDS011;979;51.076;13.748;2023-04-06T02:04:20;15.10;;;14.80;;
1957;SDS011;979;51.076;13.748;2023-04-06T02:06:54;14.67;;;14.37;;
1957;SDS011;979;51.076;13.748;2023-04-06T02:09:26;14.60;;;14.30;;
1957;SDS011;979;51.076;13.748;2023-04-06T02:11:55;14.60;;;14.30;;
1957;SDS011;979;51.076;13.748;2023-04-06T02:14:24;14.50;;;14.20;;
1957;SDS011;979;51.076;13.748;2023-04-06T02:16:57;14.90;;;14.50;;
1957;SDS011;979;51.076;13.748;2023-04-06T02:19:25;14.70;;;14.40;;
1957;SDS011;979;51.076;13.748;2023-04-06T02:21:54;13.67;;;13.37;;
1957;SDS011;979;51.076;13.748;2023-04-06T02:24:23;14.60;;;14.30;;
1957;SDS011;979;51.076;13.748;2023-04-06T02:26:52;14.87;;;14.57;;
1957;SDS011;979;51.076;13.748;2023-04-06T02:29:21;14.27;;;13.97;;
1957;SDS011;979;51.076;13.748;2023-04-06T02:31:50;12.90;;;12.70;;
1957;SDS011;979;51.076;13.748;2023-04-06T02:34:19;10.77;;;10.57;;
1957;SDS011;979;51.076;13.748;2023-04-06T02:36:50;10.50;;;10.30;;
1957;SDS011;979;51.076;13.748;2023-04-06T02:39:19;9.90;;;9.70;;
1957;SDS011;979;51.076;13.748;2023-04-06T02:41:48;9.07;;;8.87;;
1957;SDS011;979;51.076;13.748;2023-04-06T02:44:21;10.90;;;10.70;;
1957;SDS011;979;51.076;13.748;2023-04-06T02:46:50;10.77;;;10.57;;
1957;SDS011;979;51.076;13.748;2023-04-06T02:49:20;11.00;;;10.80;;
1957;SDS011;979;51.076;13.748;2023-04-06T02:51:52;11.60;;;11.40;;
1957;SDS011;979;51.076;13.748;2023-04-06T02:54:33;10.40;;;10.20;;
1957;SDS011;979;51.076;13.748;2023-04-06T02:57:02;10.17;;;9.97;;
1957;SDS011;979;51.076;13.748;2023-04-06T02:59:40;10.37;;;10.17;;
1957;SDS011;979;51.076;13.748;2023-04-06T03:02:17;9.87;;;9.67;;
1957;SDS011;979;51.076;13.748;2023-04-06T03:04:46;11.77;;;11.57;;
1957;SDS011;979;51.076;13.748;2023-04-06T03:07:24;11.57;;;11.37;;
1957;SDS011;979;51.076;13.748;2023-04-06T03:09:52;13.10;;;12.90;;
1957;SDS011;979;51.076;13.748;2023-04-06T03:12:21;13.10;;;12.87;;
1957;SDS011;979;51.076;13.748;2023-04-06T03:15:11;13.60;;;13.30;;
1957;SDS011;979;51.076;13.748;2023-04-06T03:17:44;15.10;;;14.80;;
1957;SDS011;979;51.076;13.748;2023-04-06T03:20:28;14.80;;;14.50;;
1957;SDS011;979;51.076;13.748;2023-04-06T03:22:57;13.80;;;13.50;;
1957;SDS011;979;51.076;13.748;2023-04-06T03:25:29;13.40;;;13.10;;
1957;SDS011;979;51.076;13.748;2023-04-06T03:28:02;14.60;;;14.30;;
1957;SDS011;979;51.076;13.748;2023-04-06T03:30:36;13.60;;;13.30;;
1957;SDS011;979;51.076;13.748;2023-04-06T03:33:05;13.60;;;13.30;;
1957;SDS011;979;51.076;13.748;2023-04-06T03:35:40;14.03;;;13.73;;
1957;SDS011;979;51.076;13.748;2023-04-06T03:38:11;14.77;;;14.47;;
1957;SDS011;979;51.076;13.748;2023-04-06T03:40:42;17.40;;;16.83;;
1957;SDS011;979;51.076;13.748;2023-04-06T03:43:12;14.20;;;13.90;;
1957;SDS011;979;51.076;13.748;2023-04-06T03:45:42;13.90;;;13.60;;
1957;SDS011;979;51.076;13.748;2023-04-06T03:48:11;13.90;;;13.60;;
1957;SDS011;979;51.076;13.748;2023-04-06T03:50:40;15.00;;;14.70;;
1957;SDS011;979;51.076;13.748;2023-04-06T03:53:09;14.80;;;14.50;;
1957;SDS011;979;51.076;13.748;2023-04-06T03:55:37;15.00;;;14.70;;
1957;SDS011;979;51.076;13.748;2023-04-06T03:58:06;13.70;;;13.40;;
1957;SDS011;979;51.076;13.748;2023-04-06T04:00:34;13.33;;;13.03;;
1957;SDS011;979;51.076;13.748;2023-04-06T04:03:04;14.00;;;13.70;;
1957;SDS011;979;51.076;13.748;2023-04-06T04:05:32;14.27;;;13.97;;
1957;SDS011;979;51.076;13.748;2023-04-06T04:08:03;14.10;;;13.80;;
1957;SDS011;979;51.076;13.748;2023-04-06T04:10:32;15.80;;;15.40;;
1957;SDS011;979;51.076;13.748;2023-04-06T04:13:00;14.67;;;14.37;;
1957;SDS011;979;51.076;13.748;2023-04-06T04:15:29;14.80;;;14.50;;
1957;SDS011;979;51.076;13.748;2023-04-06T04:17:57;12.70;;;12.40;;
1957;SDS011;979;51.076;13.748;2023-04-06T04:20:27;14.10;;;13.80;;
1957;SDS011;979;51.076;13.748;2023-04-06T04:22:59;14.07;;;13.77;;
1957;SDS011;979;51.076;13.748;2023-04-06T04:25:32;18.20;;;17.70;;
1957;SDS011;979;51.076;13.748;2023-04-06T04:28:00;14.63;;;14.33;;
1957;SDS011;979;51.076;13.748;2023-04-06T04:30:32;14.10;;;13.80;;
1957;SDS011;979;51.076;13.748;2023-04-06T04:33:06;14.60;;;14.30;;
1957;SDS011;979;51.076;13.748;2023-04-06T04:35:36;14.40;;;14.10;;
1957;SDS011;979;51.076;13.748;2023-04-06T04:38:05;14.40;;;14.10;;
1957;SDS011;979;51.076;13.748;2023-04-06T04:40:37;15.10;;;14.70;;
1957;SDS011;979;51.076;13.748;2023-04-06T04:43:09;14.30;;;14.00;;
1957;SDS011;979;51.076;13.748;2023-04-06T04:45:38;13.30;;;13.00;;
1957;SDS011;979;51.076;13.748;2023-04-06T04:48:29;14.60;;;14.30;;
1957;SDS011;979;51.076;13.748;2023-04-06T04:51:03;13.67;;;13.37;;
1957;SDS011;979;51.076;13.748;2023-04-06T04:53:45;14.93;;;14.63;;
1957;SDS011;979;51.076;13.748;2023-04-06T04:56:22;13.00;;;12.70;;
1957;SDS011;979;51.076;13.748;2023-04-06T04:58:56;15.03;;;14.63;;
1957;SDS011;979;51.076;13.748;2023-04-06T05:01:28;14.80;;;14.50;;
1957;SDS011;979;51.076;13.748;2023-04-06T05:04:13;15.37;;;14.97;;
1957;SDS011;979;51.076;13.748;2023-04-06T05:06:43;14.77;;;14.47;;
1957;SDS011;979;51.076;13.748;2023-04-06T05:09:14;14.50;;;14.20;;
1957;SDS011;979;51.076;13.748;2023-04-06T05:11:44;14.10;;;13.80;;
1957;SDS011;979;51.076;13.748;2023-04-06T05:14:14;14.70;;;14.40;;
1957;SDS011;979;51.076;13.748;2023-04-06T05:16:48;14.50;;;14.20;;
1957;SDS011;979;51.076;13.748;2023-04-06T05:19:23;15.07;;;14.77;;
1957;SDS011;979;51.076;13.748;2023-04-06T05:21:55;16.23;;;15.83;;
1957;SDS011;979;51.076;13.748;2023-04-06T05:24:26;15.00;;;14.70;;
1957;SDS011;979;51.076;13.748;2023-04-06T05:26:57;13.73;;;13.43;;
1957;SDS011;979;51.076;13.748;2023-04-06T05:29:27;15.00;;;14.70;;
1957;SDS011;979;51.076;13.748;2023-04-06T05:31:57;14.50;;;14.20;;
1957;SDS011;979;51.076;13.748;2023-04-06T05:34:26;14.40;;;14.10;;
1957;SDS011;979;51.076;13.748;2023-04-06T05:37:00;14.80;;;14.50;;
1957;SDS011;979;51.076;13.748;2023-04-06T05:39:32;14.87;;;14.57;;
1957;SDS011;979;51.076;13.748;2023-04-06T05:42:03;14.43;;;14.13;;
1957;SDS011;979;51.076;13.748;2023-04-06T05:44:50;14.70;;;14.40;;
1957;SDS011;979;51.076;13.748;2023-04-06T05:47:19;13.53;;;13.23;;
1957;SDS011;979;51.076;13.748;2023-04-06T05:49:58;14.07;;;13.77;;
1957;SDS011;979;51.076;13.748;2023-04-06T05:52:35;14.80;;;14.50;;
1957;SDS011;979;51.076;13.748;2023-04-06T05:55:06;14.40;;;14.10;;
1957;SDS011;979;51.076;13.748;2023-04-06T05:57:38;14.60;;;14.30;;
1957;SDS011;979;51.076;13.748;2023-04-06T06:00:19;14.07;;;13.77;;
1957;SDS011;979;51.076;13.748;2023-04-06T06:03:01;14.30;;;14.00;;
1957;SDS011;979;51.076;13.748;2023-04-06T06:05:31;13.67;;;13.37;;
1957;SDS011;979;51.076;13.748;2023-04-06T06:08:14;13.80;;;13.50;;
1957;SDS011;979;51.076;13.748;2023-04-06T06:10:43;15.30;;;14.90;;
1957;SDS011;979;51.076;13.748;2023-04-06T06:13:12;15.30;;;14.90;;
1957;SDS011;979;51.076;13.748;2023-04-06T06:15:44;15.43;;;15.03;;
1957;SDS011;979;51.076;13.748;2023-04-06T06:18:16;15.40;;;15.00;;
1957;SDS011;979;51.076;13.748;2023-04-06T06:20:50;15.70;;;15.30;;
1957;SDS011;979;51.076;13.748;2023-04-06T06:23:26;14.67;;;14.37;;
1957;SDS011;979;51.076;13.748;2023-04-06T06:25:58;14.50;;;14.20;;
1957;SDS011;979;51.076;13.748;2023-04-06T06:28:31;13.70;;;13.40;;
1957;SDS011;979;51.076;13.748;2023-04-06T06:31:05;14.53;;;14.23;;
1957;SDS011;979;51.076;13.748;2023-04-06T06:33:48;15.80;;;15.40;;
1957;SDS011;979;51.076;13.748;2023-04-06T06:36:19;14.37;;;14.07;;
1957;SDS011;979;51.076;13.748;2023-04-06T06:38:53;15.27;;;14.87;;
1957;SDS011;979;51.076;13.748;2023-04-06T06:41:26;14.43;;;14.13;;
1957;SDS011;979;51.076;13.748;2023-04-06T06:44:12;16.47;;;16.07;;
1957;SDS011;979;51.076;13.748;2023-04-06T06:46:58;15.70;;;15.30;;
1957;SDS011;979;51.076;13.748;2023-04-06T06:49:56;15.20;;;14.83;;
1957;SDS011;979;51.076;13.748;2023-04-06T06:52:40;20.80;;;20.00;;
1957;SDS011;979;51.076;13.748;2023-04-06T06:55:37;14.80;;;14.50;;
1957;SDS011;979;51.076;13.748;2023-04-06T06:58:21;15.20;;;14.80;;
1957;SDS011;979;51.076;13.748;2023-04-06T07:01:09;15.23;;;14.83;;
1957;SDS011;979;51.076;13.748;2023-04-06T07:04:27;16.53;;;16.03;;
1957;SDS011;979;51.076;13.748;2023-04-06T07:07:36;15.47;;;15.07;;
1957;SDS011;979;51.076;13.748;2023-04-06T07:10:33;16.53;;;16.13;;
1957;SDS011;979;51.076;13.748;2023-04-06T07:13:42;16.40;;;16.00;;
1957;SDS011;979;51.076;13.748;2023-04-06T07:16:25;16.07;;;15.67;;
1957;SDS011;979;51.076;13.748;2023-04-06T07:19:07;14.87;;;14.57;;
1957;SDS011;979;51.076;13.748;2023-04-06T07:21:39;15.50;;;15.10;;
1957;SDS011;979;51.076;13.748;2023-04-06T07:24:25;16.17;;;15.67;;
1957;SDS011;979;51.076;13.748;2023-04-06T07:27:15;19.23;;;18.73;;
1957;SDS011;979;51.076;13.748;2023-04-06T07:30:28;15.40;;;15.00;;
1957;SDS011;979;51.076;13.748;2023-04-06T07:33:31;15.17;;;14.77;;
1957;SDS011;979;51.076;13.748;2023-04-06T07:36:04;15.90;;;15.50;;
1957;SDS011;979;51.076;13.748;2023-04-06T07:38:36;15.20;;;14.80;;
1957;SDS011;979;51.076;13.748;2023-04-06T07:41:05;15.97;;;15.57;;
1957;SDS011;979;51.076;13.748;2023-04-06T07:43:36;16.40;;;16.00;;
1957;SDS011;979;51.076;13.748;2023-04-06T07:46:08;15.90;;;15.50;;
1957;SDS011;979;51.076;13.748;2023-04-06T07:48:38;14.90;;;14.60;;
1957;SDS011;979;51.076;13.748;2023-04-06T07:51:07;15.70;;;15.30;;
1957;SDS011;979;51.076;13.748;2023-04-06T07:53:41;16.10;;;15.70;;
1957;SDS011;979;51.076;13.748;2023-04-06T07:56:12;14.70;;;14.40;;
1957;SDS011;979;51.076;13.748;2023-04-06T07:58:43;15.43;;;15.07;;
1957;SDS011;979;51.076;13.748;2023-04-06T08:01:12;14.77;;;14.47;;
1957;SDS011;979;51.076;13.748;2023-04-06T08:03:44;15.50;;;15.10;;
1957;SDS011;979;51.076;13.748;2023-04-06T08:06:13;15.80;;;15.40;;
1957;SDS011;979;51.076;13.748;2023-04-06T08:08:44;15.30;;;14.90;;
1957;SDS011;979;51.076;13.748;2023-04-06T08:11:12;15.30;;;14.90;;
1957;SDS011;979;51.076;13.748;2023-04-06T08:13:41;15.20;;;14.80;;
1957;SDS011;979;51.076;13.748;2023-04-06T08:16:14;14.70;;;14.40;;
1957;SDS011;979;51.076;13.748;2023-04-06T08:18:44;14.67;;;14.37;;
1957;SDS011;979;51.076;13.748;2023-04-06T08:21:12;15.90;;;15.50;;
1957;SDS011;979;51.076;13.748;2023-04-06T08:23:41;15.80;;;15.40;;
1957;SDS011;979;51.076;13.748;2023-04-06T08:26:11;16.23;;;15.83;;
1957;SDS011;979;51.076;13.748;2023-04-06T08:28:40;15.90;;;15.50;;
1957;SDS011;979;51.076;13.748;2023-04-06T08:31:13;14.67;;;14.37;;
1957;SDS011;979;51.076;13.748;2023-04-06T08:33:42;21.83;;;20.53;;
1957;SDS011;979;51.076;13.748;2023-04-06T08:36:13;21.70;;;20.50;;
1957;SDS011;979;51.076;13.748;2023-04-06T08:38:43;22.13;;;20.83;;
1957;SDS011;979;51.076;13.748;2023-04-06T08:41:12;21.80;;;20.57;;
1957;SDS011;979;51.076;13.748;2023-04-06T08:44:05;21.63;;;20.43;;
1957;SDS011;979;51.076;13.748;2023-04-06T08:46:35;21.90;;;20.70;;
1957;SDS011;979;51.076;13.748;2023-04-06T08:49:07;21.17;;;20.17;;
1957;SDS011;979;51.076;13.748;2023-04-06T08:51:36;21.63;;;20.33;;
1957;SDS011;979;51.076;13.748;2023-04-06T08:54:05;20.73;;;19.73;;
1957;SDS011;979;51.076;13.748;2023-04-06T08:56:36;19.60;;;18.70;;
1957;SDS011;979;51.076;13.748;2023-04-06T08:59:07;20.33;;;19.33;;
1957;SDS011;979;51.076;13.748;2023-04-06T09:01:42;21.27;;;19.70;;
1957;SDS011;979;51.076;13.748;2023-04-06T09:04:12;21.40;;;20.20;;
1957;SDS011;979;51.076;13.748;2023-04-06T09:06:42;19.40;;;18.37;;
1957;SDS011;979;51.076;13.748;2023-04-06T09:09:13;21.17;;;19.87;;
1957;SDS011;979;51.076;13.748;2023-04-06T09:11:43;20.30;;;19.40;;
1957;SDS011;979;51.076;13.748;2023-04-06T09:14:32;21.00;;;20.00;;
1957;SDS011;979;51.076;13.748;2023-04-06T09:17:06;22.17;;;20.87;;
1957;SDS011;979;51.076;13.748;2023-04-06T09:19:45;21.87;;;20.73;;
1957;SDS011;979;51.076;13.748;2023-04-06T09:22:17;21.60;;;20.30;;
1957;SDS011;979;51.076;13.748;2023-04-06T09:24:54;21.40;;;20.40;;
1957;SDS011;979;51.076;13.748;2023-04-06T09:27:31;21.13;;;20.13;;
1957;SDS011;979;51.076;13.748;2023-04-06T09:30:03;21.40;;;20.40;;
1957;SDS011;979;51.076;13.748;2023-04-06T09:32:44;21.27;;;20.23;;
1957;SDS011;979;51.076;13.748;2023-04-06T09:35:20;20.70;;;19.73;;
1957;SDS011;979;51.076;13.748;2023-04-06T09:37:50;20.77;;;19.77;;
1957;SDS011;979;51.076;13.748;2023-04-06T09:40:20;21.33;;;20.37;;
1957;SDS011;979;51.076;13.748;2023-04-06T09:42:49;21.97;;;20.97;;
1957;SDS011;979;51.076;13.748;2023-04-06T09:45:20;23.10;;;21.90;;
1957;SDS011;979;51.076;13.748;2023-04-06T09:47:49;21.20;;;20.27;;
1957;SDS011;979;51.076;13.748;2023-04-06T09:50:20;20.40;;;19.47;;
1957;SDS011;979;51.076;13.748;2023-04-06T09:52:50;21.33;;;20.23;;
1957;SDS011;979;51.076;13.748;2023-04-06T09:55:26;21.27;;;20.20;;
1957;SDS011;979;51.076;13.748;2023-04-06T09:58:00;21.13;;;20.20;;
1957;SDS011;979;51.076;13.748;2023-04-06T10:00:34;22.00;;;21.00;;
1957;SDS011;979;51.076;13.748;2023-04-06T10:03:11;22.07;;;20.97;;
1957;SDS011;979;51.076;13.748;2023-04-06T10:05:50;21.50;;;20.60;;
1957;SDS011;979;51.076;13.748;2023-04-06T10:08:25;21.90;;;20.87;;
1957;SDS011;979;51.076;13.748;2023-04-06T10:10:58;22.90;;;21.70;;
1957;SDS011;979;51.076;13.748;2023-04-06T10:13:30;22.10;;;21.00;;
1957;SDS011;979;51.076;13.748;2023-04-06T10:15:58;21.77;;;20.70;;
1957;SDS011;979;51.076;13.748;2023-04-06T10:18:29;20.90;;;20.00;;
1957;SDS011;979;51.076;13.748;2023-04-06T10:21:01;21.20;;;20.10;;
1957;SDS011;979;51.076;13.748;2023-04-06T10:23:35;21.47;;;20.40;;
1957;SDS011;979;51.076;13.748;2023-04-06T10:26:12;22.50;;;21.40;;
1957;SDS011;979;51.076;13.748;2023-04-06T10:28:45;21.47;;;20.13;;
1957;SDS011;979;51.076;13.748;2023-04-06T10:31:14;19.47;;;18.60;;
1957;SDS011;979;51.076;13.748;2023-04-06T10:33:52;19.37;;;18.57;;
1957;SDS011;979;51.076;13.748;2023-04-06T10:36:23;19.20;;;18.20;;
1957;SDS011;979;51.076;13.748;2023-04-06T10:38:56;19.10;;;18.30;;
1957;SDS011;979;51.076;13.748;2023-04-06T10:41:31;19.53;;;18.73;;
1957;SDS011;979;51.076;13.748;2023-04-06T10:44:00;20.00;;;19.00;;
1957;SDS011;979;51.076;13.748;2023-04-06T10:46:30;20.57;;;19.47;;
1957;SDS011;979;51.076;13.748;2023-04-06T10:49:10;22.97;;;22.07;;
1957;SDS011;979;51.076;13.748;2023-04-06T10:51:39;19.43;;;18.70;;
1957;SDS011;979;51.076;13.748;2023-04-06T10:54:08;21.03;;;19.70;;
1957;SDS011;979;51.076;13.748;2023-04-06T10:56:39;21.20;;;19.87;;
1957;SDS011;979;51.076;13.748;2023-04-06T10:59:07;20.97;;;19.87;;
1957;SDS011;979;51.076;13.748;2023-04-06T11:01:35;21.10;;;19.80;;
1957;SDS011;979;51.076;13.748;2023-04-06T11:04:04;20.60;;;19.60;;
1957;SDS011;979;51.076;13.748;2023-04-06T11:06:38;20.60;;;19.70;;
1957;SDS011;979;51.076;13.748;2023-04-06T11:09:07;20.40;;;19.47;;
1957;SDS011;979;51.076;13.748;2023-04-06T11:11:38;20.37;;;19.37;;
1957;SDS011;979;51.076;13.748;2023-04-06T11:14:06;19.57;;;18.77;;
1957;SDS011;979;51.076;13.748;2023-04-06T11:16:37;20.10;;;19.10;;
1957;SDS011;979;51.076;13.748;2023-04-06T11:19:06;20.50;;;19.40;;
1957;SDS011;979;51.076;13.748;2023-04-06T11:21:34;20.80;;;19.90;;
1957;SDS011;979;51.076;13.748;2023-04-06T11:24:07;21.17;;;20.23;;
1957;SDS011;979;51.076;13.748;2023-04-06T11:26:37;20.73;;;19.37;;
1957;SDS011;979;51.076;13.748;2023-04-06T11:29:10;20.03;;;19.03;;
1957;SDS011;979;51.076;13.748;2023-04-06T11:31:40;19.90;;;19.00;;
1957;SDS011;979;51.076;13.748;2023-04-06T11:34:09;20.93;;;20.03;;
1957;SDS011;979;51.076;13.748;2023-04-06T11:36:41;21.90;;;20.80;;
1957;SDS011;979;51.076;13.748;2023-04-06T11:39:21;21.33;;;20.43;;
1957;SDS011;979;51.076;13.748;2023-04-06T11:41:51;21.57;;;20.67;;
1957;SDS011;979;51.076;13.748;2023-04-06T11:44:28;21.90;;;21.00;;
1957;SDS011;979;51.076;13.748;2023-04-06T11:47:01;22.03;;;21.07;;
1957;SDS011;979;51.076;13.748;2023-04-06T11:49:33;21.50;;;20.50;;
1957;SDS011;979;51.076;13.748;2023-04-06T11:52:14;21.63;;;20.63;;
1957;SDS011;979;51.076;13.748;2023-04-06T12:04:47;23.97;;;22.97;;
1957;SDS011;979;51.076;13.748;2023-04-06T12:07:32;23.20;;;22.20;;
1957;SDS011;979;51.076;13.748;2023-04-06T12:10:15;23.83;;;22.53;;
1957;SDS011;979;51.076;13.748;2023-04-06T12:13:02;22.00;;;21.10;;
1957;SDS011;979;51.076;13.748;2023-04-06T12:15:39;23.37;;;22.27;;
1957;SDS011;979;51.076;13.748;2023-04-06T12:18:13;22.30;;;21.40;;
1957;SDS011;979;51.076;13.748;2023-04-06T12:20:46;22.63;;;21.73;;
1957;SDS011;979;51.076;13.748;2023-04-06T12:23:14;22.13;;;21.33;;
1957;SDS011;979;51.076;13.748;2023-04-06T12:25:42;22.70;;;21.70;;
1957;SDS011;979;51.076;13.748;2023-04-06T12:28:11;23.03;;;21.90;;
1957;SDS011;979;51.076;13.748;2023-04-06T12:30:40;23.30;;;22.30;;
1957;SDS011;979;51.076;13.748;2023-04-06T12:33:10;23.83;;;22.83;;
1957;SDS011;979;51.076;13.748;2023-04-06T12:35:38;23.30;;;22.20;;
1957;SDS011;979;51.076;13.748;2023-04-06T12:38:07;22.37;;;21.47;;
1957;SDS011;979;51.076;13.748;2023-04-06T12:40:36;22.53;;;21.63;;
1957;SDS011;979;51.076;13.748;2023-04-06T12:43:06;22.90;;;21.90;;
1957;SDS011;979;51.076;13.748;2023-04-06T12:45:36;22.10;;;21.10;;
1957;SDS011;979;51.076;13.748;2023-04-06T12:48:07;22.70;;;21.70;;
1957;SDS011;979;51.076;13.748;2023-04-06T12:50:40;22.20;;;21.30;;
1957;SDS011;979;51.076;13.748;2023-04-06T12:53:10;22.20;;;21.20;;
1957;SDS011;979;51.076;13.748;2023-04-06T12:55:55;23.40;;;22.30;;
1957;SDS011;979;51.076;13.748;2023-04-06T12:58:25;22.50;;;21.60;;
1957;SDS011;979;51.076;13.748;2023-04-06T13:00:57;21.70;;;20.70;;
1957;SDS011;979;51.076;13.748;2023-04-06T13:03:29;22.43;;;21.33;;
1957;SDS011;979;51.076;13.748;2023-04-06T13:05:59;21.70;;;20.70;;
1957;SDS011;979;51.076;13.748;2023-04-06T13:08:28;20.80;;;20.00;;
1957;SDS011;979;51.076;13.748;2023-04-06T13:10:57;21.33;;;20.53;;
1957;SDS011;979;51.076;13.748;2023-04-06T13:13:28;21.37;;;20.53;;
1957;SDS011;979;51.076;13.748;2023-04-06T13:15:59;20.40;;;19.50;;
1957;SDS011;979;51.076;13.748;2023-04-06T13:18:28;22.10;;;21.20;;
1957;SDS011;979;51.076;13.748;2023-04-06T13:21:07;21.33;;;20.43;;
1957;SDS011;979;51.076;13.748;2023-04-06T13:23:39;21.67;;;20.77;;
1957;SDS011;979;51.076;13.748;2023-04-06T13:26:18;22.07;;;20.97;;
1957;SDS011;979;51.076;13.748;2023-04-06T13:28:47;21.80;;;20.80;;
1957;SDS011;979;51.076;13.748;2023-04-06T13:31:19;20.83;;;19.93;;
1957;SDS011;979;51.076;13.748;2023-04-06T13:33:50;20.43;;;19.73;;
1957;SDS011;979;51.076;13.748;2023-04-06T13:36:20;21.30;;;20.50;;
1957;SDS011;979;51.076;13.748;2023-04-06T13:38:50;20.77;;;19.93;;
1957;SDS011;979;51.076;13.748;2023-04-06T13:41:19;21.80;;;20.80;;
1957;SDS011;979;51.076;13.748;2023-04-06T13:43:49;21.10;;;20.10;;
1957;SDS011;979;51.076;13.748;2023-04-06T13:46:22;21.87;;;20.87;;
1957;SDS011;979;51.076;13.748;2023-04-06T13:48:51;20.30;;;19.43;;
1957;SDS011;979;51.076;13.748;2023-04-06T13:51:23;21.27;;;20.37;;
1957;SDS011;979;51.076;13.748;2023-04-06T13:53:52;20.97;;;19.70;;
1957;SDS011;979;51.076;13.748;2023-04-06T13:56:21;20.20;;;19.30;;
1957;SDS011;979;51.076;13.748;2023-04-06T13:58:53;20.63;;;19.80;;
1957;SDS011;979;51.076;13.748;2023-04-06T14:01:22;24.03;;;23.13;;
1957;SDS011;979;51.076;13.748;2023-04-06T14:03:52;20.77;;;19.73;;
1957;SDS011;979;51.076;13.748;2023-04-06T14:06:26;20.80;;;20.00;;
1957;SDS011;979;51.076;13.748;2023-04-06T14:09:10;22.60;;;21.50;;
1957;SDS011;979;51.076;13.748;2023-04-06T14:11:56;22.53;;;21.53;;
1957;SDS011;979;51.076;13.748;2023-04-06T14:14:24;21.00;;;20.20;;
1957;SDS011;979;51.076;13.748;2023-04-06T15:01:33;21.30;;;20.40;;
1957;SDS011;979;51.076;13.748;2023-04-06T15:04:03;20.63;;;19.83;;
1957;SDS011;979;51.076;13.748;2023-04-06T15:06:33;20.83;;;19.77;;
1957;SDS011;979;51.076;13.748;2023-04-06T15:09:01;20.17;;;19.40;;
1957;SDS011;979;51.076;13.748;2023-04-06T15:11:30;19.63;;;18.87;;
1957;SDS011;979;51.076;13.748;2023-04-06T15:14:00;20.37;;;19.63;;
1957;SDS011;979;51.076;13.748;2023-04-06T15:16:30;21.00;;;20.10;;
1957;SDS011;979;51.076;13.748;2023-04-06T15:18:59;21.50;;;20.50;;
1957;SDS011;979;51.076;13.748;2023-04-06T15:21:28;19.20;;;18.50;;
1957;SDS011;979;51.076;13.748;2023-04-06T15:23:57;19.87;;;19.07;;
1957;SDS011;979;51.076;13.748;2023-04-06T15:26:37;19.60;;;18.90;;
1957;SDS011;979;51.076;13.748;2023-04-06T15:29:06;20.67;;;19.87;;
1957;SDS011;979;51.076;13.748;2023-04-06T15:31:35;20.60;;;19.80;;
1957;SDS011;979;51.076;13.748;2023-04-06T15:34:08;18.17;;;17.33;;
1957;SDS011;979;51.076;13.748;2023-04-06T15:36:37;20.20;;;19.37;;
1957;SDS011;979;51.076;13.748;2023-04-06T15:39:06;19.87;;;18.97;;
1957;SDS011;979;51.076;13.748;2023-04-06T15:41:35;18.20;;;17.50;;
1957;SDS011;979;51.076;13.748;2023-04-06T15:44:03;20.47;;;19.57;;
1957;SDS011;979;51.076;13.748;2023-04-06T15:46:32;20.37;;;19.47;;
1957;SDS011;979;51.076;13.748;2023-04-06T15:49:05;20.57;;;19.63;;
1957;SDS011;979;51.076;13.748;2023-04-06T15:51:36;19.90;;;19.10;;
1957;SDS011;979;51.076;13.748;2023-04-06T15:54:08;20.30;;;19.50;;
1957;SDS011;979;51.076;13.748;2023-04-06T15:56:36;20.43;;;19.53;;
1957;SDS011;979;51.076;13.748;2023-04-06T15:59:05;19.93;;;19.03;;
1957;SDS011;979;51.076;13.748;2023-04-06T16:01:34;19.67;;;18.90;;
1957;SDS011;979;51.076;13.748;2023-04-06T16:04:09;19.80;;;19.00;;
1957;SDS011;979;51.076;13.748;2023-04-06T16:06:39;19.90;;;19.00;;
1957;SDS011;979;51.076;13.748;2023-04-06T16:09:07;19.03;;;18.17;;
1957;SDS011;979;51.076;13.748;2023-04-06T16:11:36;18.80;;;18.03;;
1957;SDS011;979;51.076;13.748;2023-04-06T16:14:06;19.20;;;18.43;;
1957;SDS011;979;51.076;13.748;2023-04-06T16:16:35;19.00;;;18.10;;
1957;SDS011;979;51.076;13.748;2023-04-06T16:19:12;19.40;;;18.70;;